createdAt,value
2023-03-07T00:04:15.499Z,13
2023-03-07T00:09:15.496Z,10
2023-03-07T00:14:15.522Z,10
2023-03-07T00:19:15.501Z,10
2023-03-07T00:24:15.529Z,11
2023-03-07T00:29:15.537Z,10
2023-03-07T00:34:15.507Z,10
2023-03-07T00:39:15.672Z,9
2023-03-07T00:44:15.051Z,9
2023-03-07T01:04:15.937Z,9
2023-03-07T01:09:15.692Z,9
2023-03-07T01:14:15.086Z,8
2023-03-07T01:19:15.620Z,9
2023-03-07T01:24:15.173Z,8
2023-03-07T01:29:15.229Z,10
2023-03-07T01:34:15.205Z,8
2023-03-07T01:39:15.133Z,11
2023-03-07T01:44:15.173Z,11
2023-03-07T01:49:15.160Z,10
2023-03-07T01:54:15.160Z,10
2023-03-07T01:59:15.165Z,11
2023-03-07T02:04:15.239Z,12
2023-03-07T02:09:15.180Z,10
2023-03-07T02:14:15.700Z,11
2023-03-07T02:19:15.322Z,10
2023-03-07T02:24:15.246Z,12
2023-03-07T02:29:15.725Z,11
2023-03-07T02:34:15.225Z,11
2023-03-07T02:39:15.231Z,10
2023-03-07T02:44:15.271Z,11
2023-03-07T02:49:15.770Z,12
2023-03-07T02:54:15.779Z,11
2023-03-07T02:59:15.269Z,13
2023-03-07T03:04:15.854Z,12
2023-03-07T03:09:15.420Z,13
2023-03-07T03:14:15.804Z,12
2023-03-07T03:19:15.313Z,14
2023-03-07T03:24:15.863Z,13
2023-03-07T03:29:15.838Z,14
2023-03-07T03:54:16.267Z,14
2023-03-07T03:59:15.381Z,12
2023-03-07T04:04:15.509Z,13
2023-03-07T04:09:15.903Z,12
2023-03-07T04:14:15.427Z,14
2023-03-07T04:19:15.918Z,14
2023-03-07T04:24:15.431Z,14
2023-03-07T04:29:15.944Z,12
2023-03-07T04:34:15.463Z,13
2023-03-07T04:39:15.948Z,12
2023-03-07T04:44:15.461Z,12
2023-03-07T04:49:15.984Z,12
2023-03-07T04:54:16.037Z,11
2023-03-07T04:59:16.011Z,12
2023-03-07T05:04:15.515Z,13
2023-03-07T05:09:15.509Z,13
2023-03-07T05:14:15.546Z,12
2023-03-07T05:19:16.041Z,12
2023-03-07T05:24:15.531Z,12
2023-03-07T05:29:15.524Z,14
2023-03-07T05:34:15.576Z,11
2023-03-07T05:39:15.567Z,14
2023-03-07T05:44:15.572Z,14
2023-03-07T05:49:15.571Z,11
2023-03-07T05:54:15.604Z,14
2023-03-07T05:59:15.662Z,13
2023-03-07T06:04:16.095Z,13
2023-03-07T06:09:15.614Z,13
2023-03-07T06:14:15.644Z,13
2023-03-07T06:29:16.461Z,13
2023-03-07T06:39:15.739Z,14
2023-03-07T06:44:16.182Z,13
2023-03-07T06:49:15.760Z,15
2023-03-07T06:54:15.687Z,13
2023-03-07T06:59:15.723Z,14
2023-03-07T07:04:15.700Z,17
2023-03-07T07:09:15.707Z,14
2023-03-07T07:14:16.240Z,15
2023-03-07T07:19:15.752Z,15
2023-03-07T07:24:15.937Z,14
2023-03-07T07:29:15.746Z,15
2023-03-07T07:34:15.750Z,14
2023-03-07T07:39:15.817Z,13
2023-03-07T07:44:16.287Z,12
2023-03-07T07:49:17.714Z,15
2023-03-07T07:54:16.302Z,12
2023-03-07T07:59:15.830Z,14
2023-03-07T08:04:16.327Z,12
2023-03-07T08:09:16.328Z,11
2023-03-07T08:14:16.379Z,14
2023-03-07T08:19:16.393Z,13
2023-03-07T08:24:16.394Z,15
2023-03-07T08:29:16.367Z,13
2023-03-07T08:34:15.863Z,14
2023-03-07T08:39:15.903Z,14
2023-03-07T08:44:15.880Z,12
2023-03-07T09:04:19.975Z,12
2023-03-07T09:09:15.939Z,14
2023-03-07T09:14:16.457Z,13
2023-03-07T09:19:16.439Z,16
2023-03-07T09:24:20.700Z,12
2023-03-07T09:29:15.961Z,13
2023-03-07T09:34:16.468Z,15
2023-03-07T09:39:15.977Z,14
2023-03-07T09:44:16.519Z,14
2023-03-07T09:49:16.764Z,14
2023-03-07T10:14:16.962Z,14
2023-03-07T10:19:16.666Z,16
2023-03-07T10:24:16.560Z,16
2023-03-07T10:29:16.063Z,51
2023-03-07T10:34:26.204Z,15
2023-03-07T10:39:16.821Z,17
2023-03-07T10:44:16.586Z,15
2023-03-07T10:49:16.094Z,14
2023-03-07T10:54:16.242Z,17
2023-03-07T10:59:16.110Z,17
2023-03-07T11:04:16.649Z,16
2023-03-07T11:09:16.136Z,14
2023-03-07T11:14:17.886Z,15
2023-03-07T11:19:16.650Z,14
2023-03-07T11:24:16.670Z,15
2023-03-07T11:29:16.165Z,15
2023-03-07T11:34:16.345Z,16
2023-03-07T11:49:19.634Z,16
2023-03-07T11:54:16.238Z,16
2023-03-07T11:59:16.222Z,16
2023-03-07T12:04:16.729Z,14
2023-03-07T12:09:16.234Z,15
2023-03-07T12:14:16.333Z,16
2023-03-07T12:19:16.764Z,15
2023-03-07T12:24:16.775Z,17
2023-03-07T12:29:16.786Z,15
2023-03-07T12:34:16.314Z,15
2023-03-07T12:39:16.308Z,16
2023-03-07T12:44:16.817Z,16
2023-03-07T12:59:17.212Z,16
2023-03-07T13:04:17.017Z,17
2023-03-07T13:09:16.866Z,16
2023-03-07T13:14:16.386Z,16
2023-03-07T13:19:16.971Z,18
2023-03-07T13:24:16.955Z,16
2023-03-07T13:29:16.950Z,15
2023-03-07T13:34:16.389Z,17
2023-03-07T13:39:16.428Z,17
2023-03-07T13:44:16.916Z,15
2023-03-07T13:49:16.425Z,17
2023-03-07T13:54:16.580Z,17
2023-03-07T13:59:16.564Z,18
2023-03-07T14:04:16.980Z,17
2023-03-07T14:09:16.473Z,17
2023-03-07T14:14:16.488Z,17
2023-03-07T14:19:17.016Z,17
2023-03-07T14:24:16.497Z,18
2023-03-07T14:29:17.003Z,18
2023-03-07T14:34:17.039Z,16
2023-03-07T14:39:16.601Z,18
2023-03-07T14:44:16.526Z,17
2023-03-07T14:49:16.535Z,18
2023-03-07T15:09:17.398Z,18
2023-03-07T15:14:16.570Z,14
2023-03-07T15:19:16.581Z,15
2023-03-07T15:24:16.625Z,15
2023-03-07T15:29:16.628Z,23
2023-03-07T15:34:16.620Z,15
2023-03-07T15:39:16.626Z,15
2023-03-07T15:44:16.645Z,15
2023-03-07T15:49:16.665Z,15
2023-03-07T15:54:16.655Z,15
2023-03-07T15:59:16.655Z,19
2023-03-07T16:04:16.665Z,16
2023-03-07T16:09:16.704Z,16
2023-03-07T16:14:17.159Z,17
2023-03-07T16:19:16.710Z,17
2023-03-07T16:24:16.710Z,17
2023-03-07T16:29:16.744Z,17
2023-03-07T16:34:16.746Z,18
2023-03-07T16:39:16.795Z,18
2023-03-07T16:44:17.338Z,17
2023-03-07T16:49:16.798Z,17
2023-03-07T16:54:16.742Z,16
2023-03-07T17:14:17.628Z,16
2023-03-07T17:19:17.417Z,18
2023-03-07T17:24:16.817Z,30
2023-03-07T17:29:17.328Z,17
2023-03-07T17:34:17.366Z,17
2023-03-07T17:39:17.346Z,18
2023-03-07T17:44:18.054Z,15
2023-03-07T17:49:16.857Z,15
2023-03-07T17:54:17.530Z,16
2023-03-07T17:59:16.880Z,15
2023-03-07T18:04:16.884Z,14
2023-03-07T18:09:16.888Z,17
2023-03-07T18:14:17.031Z,16
2023-03-07T18:19:25.526Z,16
2023-03-07T18:24:17.446Z,18
2023-03-07T18:29:17.422Z,23
2023-03-07T18:34:17.467Z,29
2023-03-07T18:39:17.495Z,29
2023-03-07T18:54:17.803Z,29
2023-03-07T18:59:18.188Z,30
2023-03-07T19:04:17.487Z,30
2023-03-07T19:29:17.902Z,30
2023-03-07T19:34:17.043Z,32
2023-03-07T19:39:17.555Z,33
2023-03-07T19:44:17.080Z,31
2023-03-07T19:49:17.113Z,31
2023-03-07T19:54:17.579Z,33
2023-03-07T19:59:17.584Z,31
2023-03-07T20:04:17.089Z,29
2023-03-07T20:09:17.116Z,29
2023-03-07T20:14:17.100Z,29
2023-03-07T20:19:17.934Z,31
2023-03-07T20:24:17.124Z,30
2023-03-07T20:29:17.167Z,34
2023-03-07T20:34:17.145Z,34
2023-03-07T20:39:17.170Z,36
2023-03-07T20:44:17.157Z,31
2023-03-07T20:49:17.207Z,33
2023-03-07T20:54:17.714Z,32
2023-03-07T20:59:17.198Z,33
2023-03-07T21:04:17.200Z,33
2023-03-07T21:09:17.255Z,36
2023-03-07T21:14:17.262Z,33
2023-03-07T21:19:17.228Z,31
2023-03-07T21:24:17.234Z,31
2023-03-07T21:29:17.285Z,30
2023-03-07T21:34:17.781Z,29
2023-03-07T21:39:17.292Z,29
2023-03-07T21:44:17.848Z,31
2023-03-07T21:49:17.306Z,29
2023-03-07T21:54:17.285Z,31
2023-03-07T21:59:17.325Z,28
2023-03-07T22:04:17.847Z,31
2023-03-07T22:09:17.859Z,29
2023-03-07T22:14:17.323Z,29
2023-03-07T22:19:17.333Z,28
2023-03-07T22:24:17.336Z,20
2023-03-07T22:29:17.403Z,20
2023-03-07T22:34:17.372Z,19
2023-03-07T22:39:17.882Z,20
2023-03-07T22:44:17.880Z,19
2023-03-07T22:49:17.417Z,17
2023-03-07T22:54:17.423Z,26
2023-03-07T22:59:17.914Z,19
2023-03-07T23:04:17.441Z,18
2023-03-07T23:09:17.444Z,19
2023-03-07T23:14:17.431Z,22
2023-03-07T23:19:17.450Z,25
2023-03-07T23:24:17.442Z,26
2023-03-07T23:29:18.021Z,25
2023-03-07T23:34:17.600Z,24
2023-03-07T23:39:17.617Z,26
2023-03-07T23:44:17.479Z,27
2023-03-07T23:49:18.022Z,26
2023-03-07T23:54:17.503Z,29
2023-03-07T23:59:17.506Z,29
